地図

経路データ

SID SEASON NUMBER BASIN SUBBASIN NAME ISO_TIME NATURE LAT LON WMO_WIND WMO_PRES WMO_AGENCY TRACK_TYPE DIST2LAND LANDFALL IFLAG USA_AGENCY USA_ATCF_ID USA_LAT USA_LON USA_RECORD USA_STATUS USA_WIND USA_PRES USA_SSHS USA_R34_NE USA_R34_SE USA_R34_SW USA_R34_NW USA_R50_NE USA_R50_SE USA_R50_SW USA_R50_NW USA_R64_NE USA_R64_SE USA_R64_SW USA_R64_NW USA_POCI USA_ROCI USA_RMW USA_EYE TOKYO_LAT TOKYO_LON TOKYO_GRADE TOKYO_WIND TOKYO_PRES TOKYO_R50_DIR TOKYO_R50_LONG TOKYO_R50_SHORT TOKYO_R30_DIR TOKYO_R30_LONG TOKYO_R30_SHORT TOKYO_LAND CMA_LAT CMA_LON CMA_CAT CMA_WIND CMA_PRES HKO_LAT HKO_LON HKO_CAT HKO_WIND HKO_PRES NEWDELHI_LAT NEWDELHI_LON NEWDELHI_GRADE NEWDELHI_WIND NEWDELHI_PRES NEWDELHI_CI NEWDELHI_DP NEWDELHI_POCI REUNION_LAT REUNION_LON REUNION_TYPE REUNION_WIND REUNION_PRES REUNION_TNUM REUNION_CI REUNION_RMW REUNION_R34_NE REUNION_R34_SE REUNION_R34_SW REUNION_R34_NW REUNION_R50_NE REUNION_R50_SE REUNION_R50_SW REUNION_R50_NW REUNION_R64_NE REUNION_R64_SE REUNION_R64_SW REUNION_R64_NW BOM_LAT BOM_LON BOM_TYPE BOM_WIND BOM_PRES BOM_TNUM BOM_CI BOM_RMW BOM_R34_NE BOM_R34_SE BOM_R34_SW BOM_R34_NW BOM_R50_NE BOM_R50_SE BOM_R50_SW BOM_R50_NW BOM_R64_NE BOM_R64_SE BOM_R64_SW BOM_R64_NW BOM_ROCI BOM_POCI BOM_EYE BOM_POS_METHOD BOM_PRES_METHOD NADI_LAT NADI_LON NADI_CAT NADI_WIND NADI_PRES WELLINGTON_LAT WELLINGTON_LON WELLINGTON_WIND WELLINGTON_PRES DS824_LAT DS824_LON DS824_STAGE DS824_WIND DS824_PRES TD9636_LAT TD9636_LON TD9636_STAGE TD9636_WIND TD9636_PRES TD9635_LAT TD9635_LON TD9635_WIND TD9635_PRES TD9635_ROCI NEUMANN_LAT NEUMANN_LON NEUMANN_CLASS NEUMANN_WIND NEUMANN_PRES MLC_LAT MLC_LON MLC_CLASS MLC_WIND MLC_PRES USA_GUST BOM_GUST BOM_GUST_PER REUNION_GUST REUNION_GUST_PER USA_SEAHGT USA_SEARAD_NE USA_SEARAD_SE USA_SEARAD_SW USA_SEARAD_NW STORM_SPEED STORM_DIR
1898125S31156 1898 12 SP EA NOT_NAMED 1898-05-04 12:00:00 NR -30.8000 155.900 main 268 267 __________O___ -1 -30.8000 155.900 7 2 0
1898125S31156 1898 12 SP EA NOT_NAMED 1898-05-04 15:00:00 NR -30.8796 155.875 main 267 257 __________P___ -1 -30.8796 155.875 7 2 200
1898125S31156 1898 12 SP EA NOT_NAMED 1898-05-04 18:00:00 NR -30.9574 155.840 main 257 257 __________P___ -1 -30.9574 155.840 7 2 208
1898125S31156 1898 12 SP EA NOT_NAMED 1898-05-04 21:00:00 NR -31.0315 155.785 main 257 247 __________P___ -1 -31.0315 155.785 7 2 220
1898125S31156 1898 12 SP EA NOT_NAMED 1898-05-05 00:00:00 NR -31.1000 155.700 main 247 237 __________O___ -1 -31.1000 155.700 7 2 234
1898125S31156 1898 12 SP EA NOT_NAMED 1898-05-05 03:00:00 NR -31.1613 155.579 main 237 218 __________P___ -1 -31.1613 155.579 7 3 243
1898125S31156 1898 12 SP EA NOT_NAMED 1898-05-05 06:00:00 NR -31.2151 155.430 main 218 209 __________P___ -1 -31.2151 155.430 7 3 249
1898125S31156 1898 12 SP EA NOT_NAMED 1898-05-05 09:00:00 NR -31.2613 155.266 main 210 191 __________P___ -1 -31.2613 155.266 7 3 253
1898125S31156 1898 12 SP EA NOT_NAMED 1898-05-05 12:00:00 NR -31.3000 155.100 main 191 174 __________O___ -1 -31.3000 155.100 7 3 252
1898125S31156 1898 12 SP EA NOT_NAMED 1898-05-05 15:00:00 NR -31.3566 154.934 main 174 164 __________P___ -1 -31.3566 154.934 7 3 250
1898125S31156 1898 12 SP EA NOT_NAMED 1898-05-05 18:00:00 NR -31.4026 154.770 main 164 146 __________P___ -1 -31.4026 154.770 7 3 256
1898125S31156 1898 12 SP EA NOT_NAMED 1898-05-05 21:00:00 NR -31.4223 154.621 main 146 137 __________P___ -1 -31.4223 154.621 7 2 271
1898125S31156 1898 12 SP EA NOT_NAMED 1898-05-06 00:00:00 NR -31.4000 154.500 main 137 125 __________O___ -1 -31.4000 154.500 7 2 300
1898125S31156 1898 12 SP EA NOT_NAMED 1898-05-06 03:00:00 NR -31.3099 154.388 main 125 114 __________P___ -1 -31.3099 154.388 7 3 323
1898125S31156 1898 12 SP EA NOT_NAMED 1898-05-06 06:00:00 NR -31.1798 154.310 main 114 114 __________P___ -1 -31.1798 154.310 7 3 341
1898125S31156 1898 12 SP EA NOT_NAMED 1898-05-06 09:00:00 NR -31.0348 154.276 main 114 114 __________P___ -1 -31.0348 154.276 7 3 0
1898125S31156 1898 12 SP EA NOT_NAMED 1898-05-06 12:00:00 NR -30.9000 154.300 main 116 116 __________O___ -1 -30.9000 154.300 7 3 20
1898125S31156 1898 12 SP EA NOT_NAMED 1898-05-06 15:00:00 NR -30.7701 154.389 main 128 128 __________P___ -1 -30.7701 154.389 7 3 40
1898125S31156 1898 12 SP EA NOT_NAMED 1898-05-06 18:00:00 NR -30.6601 154.533 main 140 140 __________P___ -1 -30.6601 154.533 7 3 58
1898125S31156 1898 12 SP EA NOT_NAMED 1898-05-06 21:00:00 NR -30.5951 154.711 main 154 154 __________P___ -1 -30.5951 154.711 7 3 79
1898125S31156 1898 12 SP EA NOT_NAMED 1898-05-07 00:00:00 NR -30.6000 154.900 main 172 172 __________O___ -1 -30.6000 154.900 7 3 107
1898125S31156 1898 12 SP EA NOT_NAMED 1898-05-07 03:00:00 NR -30.6910 155.072 main 193 193 __________P___ -1 -30.6910 155.072 7 4 130
1898125S31156 1898 12 SP EA NOT_NAMED 1898-05-07 06:00:00 NR -30.8525 155.250 main 201 201 __________P___ -1 -30.8525 155.250 7 5 141
1898125S31156 1898 12 SP EA NOT_NAMED 1898-05-07 09:00:00 NR -31.0628 155.428 main 218 218 __________P___ -1 -31.0628 155.428 7 5 146
1898125S31156 1898 12 SP EA NOT_NAMED 1898-05-07 12:00:00 NR -31.3000 155.600 main 238 238 __________O___ -1 -31.3000 155.600 7 6 149
1898125S31156 1898 12 SP EA NOT_NAMED 1898-05-07 15:00:00 NR -31.5456 155.761 main 259 259 __________P___ -1 -31.5456 155.761 7 6 152
1898125S31156 1898 12 SP EA NOT_NAMED 1898-05-07 18:00:00 NR -31.7950 155.912 main 276 276 __________P___ -1 -31.7950 155.912 7 6 153
1898125S31156 1898 12 SP EA NOT_NAMED 1898-05-07 21:00:00 NR -32.0469 156.057 main 301 301 __________P___ -1 -32.0469 156.057 7 6 154
1898125S31156 1898 12 SP EA NOT_NAMED 1898-05-08 00:00:00 NR -32.3000 156.200 main 321 __________O___ -1 -32.3000 156.200 7 6 155

デジタル台風データ・検索

IBTrACS Databaseについて

本データベースは、米国NOAAが公開する1842年以降の世界の熱帯低気圧のベストトラックデータアーカイブInternational Best Track Archive for Climate Stewardship (IBTrACS)を、ウェブで閲覧しやすい形式に変換したものです。

最終更新日:2021-12-06